Wilmer, TX

10:39 AM CDT on October 31, 2014 (GMT -0500)
Redbird | Change Station
CLOSE
Current Station
Airport
Location: Dallas Redbird,
Elevation: 659 ft
Nearby Weather Stations

Elev 659 ft 32.68 °N, 96.87 °W | Updated 46 minutes ago

Clear
Clear
60 °F
Feels Like 60 °F
N
14
Wind Variable Wind from North
Gusts 25 mph

Today
High -- | Low -- °F
--% Chance of Precip.
Yesterday
High -- | Low -- °F
Precip. -- in
7:43 AM 6:36 PM
First Quarter, 56% visible
Pressure 30.30 in
Visibility 10.0 miles
Clouds Clear
Dew Point 41 °F
Humidity 49%
Rainfall 0.00 in
Snow Depth Not available.
UV 2 out of 12
Pollen 4.00 out of 12
Air Quality Not available.
Flu Activity Not available.
METAR KRBD 311453Z 01012G22KT 10SM CLR 16/05 A3030 RMK AO2 SLP258 T01560050 51023

More Conditions Fewer Conditions

Pressure 30.30 in
Visibility 10.0 miles
Clouds Clear
Dew Point 41 °F
Humidity 49%
Rainfall 0.00 in
Snow Depth Not available.
UV 2 out of 12
Pollen 4.00 out of 12
Air Quality Not available.
Flu Activity Not available.
METAR KRBD 311453Z 01012G22KT 10SM CLR 16/05 A3030 RMK AO2 SLP258 T01560050 51023

More Conditions Fewer Conditions

10-Day Weather Forecast

Almanac

Astronomy

Oct. 31, 2014 Rise Set
Actual Time
Civil Twilight
Nautical Twilight
Astronomical Twilight
Moon
Length of Visible Light
Length of Day
Tomorrow will be .
, % of the Moon is Illuminated

Today's Extremes

State Highs State Lows

Community

WunderPhotos

Upload Photos

1,766,640 photos uploaded!

WunderBlogs® & News

Nearby

Air Quality

  Air Quality AQ Index Pollutant
Not available.

Snow Depth

Station Depth Elevation

Earthquake Activity

City Distance Mag. Time & Date
Minimum magnitude displayed is 2.5.

Coastal Water Temperatures

Place Temperature

Nearby Weather Stations